Time;durP1;ratioP1;P1;durP2;ratioP2;P2;SDS_P1;SDS_P2;PMS_P1;PMS_P2;Temp;Humidity;BMP_temperature;BMP_pressure;BME280_temperature;BME280_humidity;BME280_pressure;Samples;Min_cycle;Max_cycle;Signal;HPM_P1;HPM_P2
2022/04/19 00:01:42;;;;;;;5.38;3.90;;;;;;;-155.54;100.00;57697.75;5038690;28;20477;-58
2022/04/19 00:04:08;;;;;;;4.72;3.13;;;;;;;-155.54;100.00;57697.75;5037897;28;20140;-59
2022/04/19 00:06:33;;;;;;;3.53;2.03;;;;;;;-155.54;100.00;57697.75;5036399;28;20077;-59
2022/04/19 00:08:59;;;;;;;5.13;3.75;;;;;;;-155.54;100.00;57697.75;5015266;28;20468;-60
2022/04/19 00:11:26;;;;;;;2.30;2.10;;;;;;;-155.54;100.00;57697.75;5009354;28;20113;-62
2022/04/19 00:13:52;;;;;;;4.75;2.85;;;;;;;-155.54;100.00;57697.75;5028099;28;20074;-62
2022/04/19 00:16:17;;;;;;;4.32;3.00;;;;;;;-155.54;100.00;57697.75;4998083;28;20476;-59
2022/04/19 00:18:43;;;;;;;9.98;3.95;;;;;;;-155.54;100.00;57697.75;4992890;28;20091;-62
2022/04/19 00:21:08;;;;;;;4.38;2.83;;;;;;;-155.54;100.00;57697.75;4989613;28;20109;-62
2022/04/19 00:23:33;;;;;;;5.93;3.55;;;;;;;-155.54;100.00;57697.75;4994130;28;20102;-62
2022/04/19 00:25:59;;;;;;;5.25;2.55;;;;;;;-155.54;100.00;57697.75;5018195;28;20073;-62
2022/04/19 00:28:26;;;;;;;5.72;3.45;;;;;;;-155.54;100.00;57697.75;5018396;28;20106;-62
2022/04/19 00:30:51;;;;;;;3.45;2.90;;;;;;;-155.54;100.00;57697.75;5018367;28;20575;-62
2022/04/19 00:33:17;;;;;;;3.40;2.78;;;;;;;-155.54;100.00;57697.75;4999124;28;20358;-62
2022/04/19 00:35:42;;;;;;;5.18;2.40;;;;;;;-155.54;100.00;57697.75;4998122;28;20109;-63
2022/04/19 00:38:08;;;;;;;3.83;2.90;;;;;;;-155.54;100.00;57697.75;4994187;28;20464;-62
2022/04/19 00:40:34;;;;;;;3.63;2.33;;;;;;;-155.54;100.00;57697.75;5018615;28;20656;-62
2022/04/19 00:42:59;;;;;;;4.32;3.00;;;;;;;-155.54;100.00;57697.75;5036278;28;20077;-62
2022/04/19 00:45:25;;;;;;;3.75;2.40;;;;;;;-155.54;100.00;57697.75;4982765;28;20467;-62
2022/04/19 00:47:51;;;;;;;7.47;3.65;;;;;;;-155.54;100.00;57697.75;4978826;28;20110;-62
2022/04/19 00:50:16;;;;;;;2.80;2.35;;;;;;;-155.54;100.00;57697.75;4994433;28;20153;-62
2022/04/19 00:52:43;;;;;;;4.00;2.90;;;;;;;-155.54;100.00;57697.75;4997801;28;20110;-62
2022/04/19 00:55:09;;;;;;;2.40;2.20;;;;;;;-155.54;100.00;57697.75;4996014;28;20475;-62
2022/04/19 00:57:37;;;;;;;3.53;2.03;;;;;;;-155.54;100.00;57697.75;5018210;28;20120;-62
2022/04/19 01:00:03;;;;;;;;;;;;;;;-155.54;100.00;57697.75;5025930;28;20695;-62
2022/04/19 01:02:28;;;;;;;1.90;1.80;;;;;;;-155.54;100.00;57697.75;5037388;28;19980;-62
2022/04/19 01:04:55;;;;;;;2.28;1.90;;;;;;;-155.54;100.00;57697.75;5035720;28;20120;-62
2022/04/19 01:07:21;;;;;;;3.13;2.40;;;;;;;-155.54;100.00;57697.75;5033258;28;20407;-62
2022/04/19 01:09:46;;;;;;;5.72;4.10;;;;;;;-155.54;100.00;57697.75;5011277;28;20081;-62
2022/04/19 01:15:06;;;;;;;5.47;3.92;;;;;;;-155.54;100.00;57697.75;4978726;28;20193;-63
2022/04/19 01:17:34;;;;;;;5.05;2.63;;;;;;;-155.54;100.00;57697.75;4995180;28;20637;-62
2022/04/19 01:20:00;;;;;;;3.40;2.90;;;;;;;-155.54;100.00;57697.75;4994352;28;20168;-63
2022/04/19 01:22:26;;;;;;;4.32;2.35;;;;;;;-155.54;100.00;57697.75;4996126;28;20093;-63
2022/04/19 01:24:51;;;;;;;4.78;3.40;;;;;;;-155.54;100.00;57697.75;5000166;28;20107;-62
2022/04/19 01:27:18;;;;;;;5.75;3.85;;;;;;;-155.54;100.00;57697.75;5001598;28;20459;-62
2022/04/19 01:29:44;;;;;;;5.70;3.15;;;;;;;-155.54;100.00;57697.75;5000487;28;20543;-62
2022/04/19 01:32:09;;;;;;;4.18;2.50;;;;;;;-155.54;100.00;57697.75;5001654;28;20111;-62
2022/04/19 01:34:35;;;;;;;2.20;1.90;;;;;;;-155.54;100.00;57697.75;4984157;28;20074;-62
2022/04/19 01:37:00;;;;;;;2.42;2.10;;;;;;;-155.54;100.00;57697.75;5001383;28;20106;-62
2022/04/19 01:42:10;;;;;;;2.90;1.98;;;;;;;-155.54;100.00;57697.75;5000692;28;20105;-62
2022/04/19 01:44:36;;;;;;;2.88;2.20;;;;;;;-155.54;100.00;57697.75;4989980;28;20126;-62
2022/04/19 01:47:02;;;;;;;5.65;2.53;;;;;;;-155.54;100.00;57697.75;5001350;28;20112;-63
2022/04/19 01:49:27;;;;;;;3.60;1.92;;;;;;;-155.54;100.00;57697.75;5001044;28;20134;-62
2022/04/19 01:51:52;;;;;;;3.17;2.20;;;;;;;-155.54;100.00;57697.75;5000528;28;20104;-63
2022/04/19 01:54:18;;;;;;;3.38;2.10;;;;;;;-155.54;100.00;57697.75;5001360;28;20144;-63
2022/04/19 01:56:44;;;;;;;4.15;2.20;;;;;;;-155.54;100.00;57697.75;5028987;28;20479;-63
2022/04/19 01:59:09;;;;;;;3.25;2.45;;;;;;;-155.54;100.00;57697.75;5033122;28;20086;-63
2022/04/19 02:01:35;;;;;;;2.53;2.08;;;;;;;-155.54;100.00;57697.75;4994567;28;20102;-62
2022/04/19 02:04:00;;;;;;;2.47;2.00;;;;;;;-155.54;100.00;57697.75;4986105;28;20551;-62
2022/04/19 02:06:26;;;;;;;2.35;2.08;;;;;;;-155.54;100.00;57697.75;5001516;28;20097;-63
2022/04/19 02:08:51;;;;;;;2.33;2.03;;;;;;;-155.54;100.00;57697.75;4992478;28;20098;-63
2022/04/19 02:11:17;;;;;;;2.40;2.20;;;;;;;-155.54;100.00;57697.75;4996399;28;20094;-63
2022/04/19 02:13:42;;;;;;;4.25;2.20;;;;;;;-155.54;100.00;57697.75;5001089;28;20074;-58
2022/04/19 02:16:09;;;;;;;2.40;2.20;;;;;;;-155.54;100.00;57697.75;5001094;28;20106;-59
2022/04/19 02:18:34;;;;;;;2.22;1.85;;;;;;;-155.54;100.00;57697.75;5001719;28;20078;-61
2022/04/19 02:21:00;;;;;;;2.35;2.03;;;;;;;-155.54;100.00;57697.75;4990971;28;20192;-61
2022/04/19 02:23:26;;;;;;;2.90;2.20;;;;;;;-155.54;100.00;57697.75;5007959;28;20108;-61
2022/04/19 02:25:54;;;;;;;2.28;1.88;;;;;;;-155.54;100.00;57697.75;5028153;28;20172;-62
2022/04/19 02:28:21;;;;;;;7.63;1.85;;;;;;;-155.54;100.00;57697.75;5033657;28;20116;-61
2022/04/19 02:30:46;;;;;;;2.30;2.03;;;;;;;-155.54;100.00;57697.75;5039599;28;20163;-62
2022/04/19 02:33:11;;;;;;;2.33;2.13;;;;;;;-155.54;100.00;57697.75;5035337;28;20098;-62
2022/04/19 02:35:38;;;;;;;4.40;1.90;;;;;;;-155.54;100.00;57697.75;5039331;28;20450;-62
2022/04/19 02:38:03;;;;;;;3.75;2.00;;;;;;;-155.54;100.00;57697.75;5026831;28;20082;-62
2022/04/19 02:40:28;;;;;;;3.50;2.10;;;;;;;-155.54;100.00;57697.75;5037947;28;20344;-62
2022/04/19 02:42:54;;;;;;;2.03;1.90;;;;;;;-155.54;100.00;57697.75;5037158;28;20155;-62
2022/04/19 02:45:20;;;;;;;3.13;1.95;;;;;;;-155.54;100.00;57697.75;5040803;28;20101;-62
2022/04/19 02:48:05;;;;;;;2.97;2.25;;;;;;;-155.54;100.00;57697.75;5041505;28;20132;-62
2022/04/19 02:50:34;;;;;;;3.28;2.20;;;;;;;-155.54;100.00;57697.75;5039039;28;20081;-62
2022/04/19 02:53:03;;;;;;;3.15;2.20;;;;;;;-155.54;100.00;57697.75;5026473;28;20102;-62
2022/04/19 02:55:28;;;;;;;3.22;2.40;;;;;;;-155.54;100.00;57697.75;5044302;28;20142;-62
2022/04/19 02:57:54;;;;;;;4.40;2.35;;;;;;;-155.54;100.00;57697.75;5033004;28;20070;-62
2022/04/19 03:00:20;;;;;;;2.80;2.03;;;;;;;-155.54;100.00;57697.75;5044165;28;20841;-62
2022/04/19 03:02:46;;;;;;;3.33;2.40;;;;;;;-155.54;100.00;57697.75;5029509;28;20081;-62
2022/04/19 03:05:12;;;;;;;4.63;2.03;;;;;;;-155.54;100.00;57697.75;5043865;28;20530;-58
2022/04/19 03:07:37;;;;;;;2.30;2.10;;;;;;;-155.54;100.00;57697.75;5024480;28;20098;-62
2022/04/19 03:10:02;;;;;;;2.65;2.10;;;;;;;-155.54;100.00;57697.75;4985245;28;20167;-62
2022/04/19 03:12:28;;;;;;;2.25;2.08;;;;;;;-155.54;100.00;57697.75;4995664;28;20583;-62
2022/04/19 03:14:53;;;;;;;2.65;2.10;;;;;;;-155.54;100.00;57697.75;5004643;28;20081;-62
2022/04/19 03:17:19;;;;;;;2.38;1.88;;;;;;;-155.54;100.00;57697.75;5020794;28;20471;-62
2022/04/19 03:19:44;;;;;;;2.20;2.00;;;;;;;-155.54;100.00;57697.75;5027535;28;20375;-62
2022/04/19 03:22:09;;;;;;;2.40;2.20;;;;;;;-155.54;100.00;57697.75;5037419;28;20155;-62
2022/04/19 03:30:03;;;;;;;2.22;2.00;;;;;;;-155.54;100.00;57697.75;4984546;28;20658;-62
2022/04/19 03:32:28;;;;;;;3.63;2.22;;;;;;;-155.54;100.00;57697.75;4995994;28;20126;-62
2022/04/19 03:34:54;;;;;;;3.60;2.22;;;;;;;-155.54;100.00;57697.75;5004118;28;20105;-62
2022/04/19 03:37:19;;;;;;;3.53;2.25;;;;;;;-155.54;100.00;57697.75;5019853;28;20109;-62
2022/04/19 03:39:45;;;;;;;3.33;2.20;;;;;;;-155.54;100.00;57697.75;5015454;28;20100;-62
2022/04/19 03:42:10;;;;;;;5.05;2.60;;;;;;;-155.54;100.00;57697.75;5034983;28;20192;-62
2022/04/19 03:44:36;;;;;;;4.15;2.50;;;;;;;-155.54;100.00;57697.75;5041693;28;20465;-59
2022/04/19 03:47:07;;;;;;;2.95;2.50;;;;;;;-155.54;100.00;57697.75;5036478;28;20108;-62
2022/04/19 03:49:34;;;;;;;3.47;2.67;;;;;;;-155.54;100.00;57697.75;5040402;28;20108;-62
2022/04/19 03:51:59;;;;;;;4.15;2.40;;;;;;;-155.54;100.00;57697.75;5033604;28;20758;-62
2022/04/19 03:54:25;;;;;;;3.50;2.45;;;;;;;-155.54;100.00;57697.75;5041092;28;20081;-62
2022/04/19 03:56:50;;;;;;;3.13;2.33;;;;;;;-155.54;100.00;57697.75;5037688;28;20097;-62
2022/04/19 03:59:16;;;;;;;3.22;2.33;;;;;;;-155.54;100.00;57697.75;5042768;28;20116;-62
2022/04/19 04:01:42;;;;;;;4.25;2.70;;;;;;;-155.54;100.00;57697.75;5001731;28;20114;-60
2022/04/19 04:04:07;;;;;;;3.60;2.58;;;;;;;-155.54;100.00;57697.75;4996109;28;20109;-59
2022/04/19 04:06:35;;;;;;;3.55;2.70;;;;;;;-155.54;100.00;57697.75;5005376;28;20086;-62
2022/04/19 04:09:00;;;;;;;2.40;2.10;;;;;;;-155.54;100.00;57697.75;5022019;28;20511;-62
2022/04/19 04:11:26;;;;;;;4.25;2.80;;;;;;;-155.54;100.00;57697.75;5020435;28;20096;-62
2022/04/19 04:13:51;;;;;;;3.22;2.60;;;;;;;-155.54;100.00;57697.75;4983645;28;20086;-62
2022/04/19 04:16:17;;;;;;;4.03;2.90;;;;;;;-155.54;100.00;57697.75;4997271;28;20145;-62
2022/04/19 04:18:42;;;;;;;3.90;2.83;;;;;;;-155.54;100.00;57697.75;5003296;28;20082;-63
2022/04/19 04:21:07;;;;;;;7.82;3.03;;;;;;;-155.54;100.00;57697.75;4990877;28;20117;-62
2022/04/19 04:23:33;;;;;;;4.88;3.10;;;;;;;-155.54;100.00;57697.75;5003467;28;20093;-63
2022/04/19 04:26:01;;;;;;;4.25;3.10;;;;;;;-155.54;100.00;57697.75;5002511;28;20086;-63
2022/04/19 04:28:26;;;;;;;4.40;3.57;;;;;;;-155.54;100.00;57697.75;5002345;28;20106;-58
2022/04/19 04:30:52;;;;;;;4.32;3.15;;;;;;;-155.54;100.00;57697.75;5002970;28;20145;-63
2022/04/19 04:33:17;;;;;;;4.57;3.20;;;;;;;-155.54;100.00;57697.75;4997977;28;20103;-63
2022/04/19 04:35:43;;;;;;;6.10;3.63;;;;;;;-155.54;100.00;57697.75;5001042;28;20145;-63
2022/04/19 04:38:08;;;;;;;4.07;2.95;;;;;;;-155.54;100.00;57697.75;4975111;28;20571;-59
2022/04/19 04:40:33;;;;;;;3.92;3.05;;;;;;;-155.54;100.00;57697.75;5001667;28;20108;-63
2022/04/19 04:42:59;;;;;;;4.55;3.10;;;;;;;-155.54;100.00;57697.75;5002215;28;20086;-62
2022/04/19 04:45:25;;;;;;;4.97;3.10;;;;;;;-155.54;100.00;57697.75;5001787;28;20548;-58
2022/04/19 04:50:34;;;;;;;3.75;2.90;;;;;;;-155.54;100.00;57697.75;4990648;28;20498;-62
2022/04/19 04:53:00;;;;;;;4.50;2.88;;;;;;;-155.54;100.00;57697.75;5018070;28;20481;-62
2022/04/19 04:55:25;;;;;;;7.28;2.97;;;;;;;-155.54;100.00;57697.75;5041773;28;20073;-62
2022/04/19 04:57:56;;;;;;;4.65;2.90;;;;;;;-155.54;100.00;57697.75;5031982;28;20124;-62
2022/04/19 05:00:21;;;;;;;3.75;3.05;;;;;;;-155.54;100.00;57697.75;5041621;28;20105;-62
2022/04/19 05:02:47;;;;;;;4.47;2.70;;;;;;;-155.54;100.00;57697.75;5033486;28;20088;-62
2022/04/19 05:05:12;;;;;;;3.65;2.53;;;;;;;-155.54;100.00;57697.75;5041635;28;20113;-62
2022/04/19 05:07:38;;;;;;;5.20;2.63;;;;;;;-155.54;100.00;57697.75;5028163;28;20129;-62
2022/04/19 05:10:04;;;;;;;3.33;2.60;;;;;;;-155.54;100.00;57697.75;4990957;28;20510;-63
2022/04/19 05:12:30;;;;;;;4.47;2.72;;;;;;;-155.54;100.00;57697.75;4995888;28;20099;-62
2022/04/19 05:14:55;;;;;;;3.92;2.72;;;;;;;-155.54;100.00;57697.75;4992613;28;20105;-62
2022/04/19 05:17:21;;;;;;;3.78;2.70;;;;;;;-155.54;100.00;57697.75;5014690;28;20608;-62
2022/04/19 05:19:46;;;;;;;4.13;2.88;;;;;;;-155.54;100.00;57697.75;5030219;28;20108;-62
2022/04/19 05:22:12;;;;;;;6.05;3.00;;;;;;;-155.54;100.00;57697.75;5009645;28;20334;-62
2022/04/19 05:24:37;;;;;;;4.93;2.97;;;;;;;-155.54;100.00;57697.75;4997462;28;20103;-62
2022/04/19 05:27:03;;;;;;;4.53;3.22;;;;;;;-155.54;100.00;57697.75;4995960;28;20094;-63
2022/04/19 05:29:28;;;;;;;3.83;2.95;;;;;;;-155.54;100.00;57697.75;4993980;28;20184;-62
2022/04/19 05:31:53;;;;;;;5.43;3.05;;;;;;;-155.54;100.00;57697.75;4989915;28;20138;-62
2022/04/19 05:34:19;;;;;;;3.92;2.95;;;;;;;-155.54;100.00;57697.75;4994973;28;20085;-62
2022/04/19 05:36:44;;;;;;;6.97;3.25;;;;;;;-155.54;100.00;57697.75;4984550;28;20110;-59
2022/04/19 05:39:10;;;;;;;5.07;3.05;;;;;;;-155.54;100.00;57697.75;4982808;28;20178;-59
2022/04/19 05:41:39;;;;;;;3.70;2.70;;;;;;;-155.54;100.00;57697.75;5015083;28;20093;-59
2022/04/19 05:44:04;;;;;;;7.05;2.95;;;;;;;-155.54;100.00;57697.75;5028730;28;20201;-59
2022/04/19 05:46:30;;;;;;;4.28;2.92;;;;;;;-155.54;100.00;57697.75;5020649;28;20467;-58
2022/04/19 05:48:56;;;;;;;3.50;2.78;;;;;;;-155.54;100.00;57697.75;5018918;28;20106;-63
2022/04/19 05:51:21;;;;;;;4.82;2.95;;;;;;;-155.54;100.00;57697.75;5000945;28;20169;-62
2022/04/19 05:53:47;;;;;;;4.40;2.85;;;;;;;-155.54;100.00;57697.75;4979039;28;20083;-62
2022/04/19 05:56:12;;;;;;;3.78;3.00;;;;;;;-155.54;100.00;57697.75;4984087;28;20169;-62
2022/04/19 05:58:37;;;;;;;4.45;3.00;;;;;;;-155.54;100.00;57697.75;4994575;28;20729;-62
2022/04/19 06:01:03;;;;;;;5.55;3.38;;;;;;;-155.54;100.00;57697.75;4989845;28;20152;-60
2022/04/19 06:06:14;;;;;;;3.97;3.00;;;;;;;-155.54;100.00;57697.75;4990264;28;20160;-60
2022/04/19 06:08:39;;;;;;;4.53;3.05;;;;;;;-155.54;100.00;57697.75;4988093;28;20098;-62
2022/04/19 06:11:05;;;;;;;6.00;2.90;;;;;;;-155.54;100.00;57697.75;4992497;28;20078;-62
2022/04/19 06:13:32;;;;;;;4.25;3.22;;;;;;;-155.54;100.00;57697.75;4986408;28;20113;-62
2022/04/19 06:15:57;;;;;;;7.07;3.75;;;;;;;-155.54;100.00;57697.75;4997265;28;20594;-62
2022/04/19 06:18:23;;;;;;;7.65;4.50;;;;;;;-155.54;100.00;57697.75;4997001;28;20155;-62
2022/04/19 06:20:53;;;;;;;8.15;5.53;;;;;;;-155.54;100.00;57697.75;5022439;28;20112;-63
2022/04/19 06:23:18;;;;;;;11.68;8.23;;;;;;;-155.54;100.00;57697.75;4998145;28;20800;-60
2022/04/19 06:25:44;;;;;;;12.45;8.85;;;;;;;-155.54;100.00;57697.75;4982861;28;20067;-63
2022/04/19 06:28:09;;;;;;;11.50;7.88;;;;;;;-155.54;100.00;57697.75;4981962;28;20730;-61
2022/04/19 06:30:35;;;;;;;14.10;10.15;;;;;;;-155.54;100.00;57697.75;4996803;28;20118;-62
2022/04/19 06:33:00;;;;;;;18.02;11.48;;;;;;;-155.54;100.00;57697.75;5015502;28;20098;-63
2022/04/19 06:35:25;;;;;;;13.00;9.10;;;;;;;-155.54;100.00;57697.75;5026397;28;20096;-63
2022/04/19 06:37:51;;;;;;;14.13;9.73;;;;;;;-155.54;100.00;57697.75;5027511;28;20880;-64
2022/04/19 06:40:16;;;;;;;15.90;11.55;;;;;;;-155.54;100.00;57697.75;5031306;28;20299;-64
2022/04/19 06:42:43;;;;;;;16.77;11.80;;;;;;;-155.54;100.00;57697.75;5016975;28;20147;-63
2022/04/19 06:45:10;;;;;;;16.00;10.50;;;;;;;-155.54;100.00;57697.75;4987044;28;20728;-64
2022/04/19 06:47:35;;;;;;;14.70;10.60;;;;;;;-155.54;100.00;57697.75;4990762;28;20094;-64
2022/04/19 06:50:02;;;;;;;14.75;10.98;;;;;;;-155.54;100.00;57697.75;4996319;28;20080;-63
2022/04/19 06:52:28;;;;;;;16.80;12.30;;;;;;;-155.54;100.00;57697.75;4988773;28;20509;-64
2022/04/19 06:54:53;;;;;;;14.30;10.50;;;;;;;-155.54;100.00;57697.75;4999016;28;20106;-65
2022/04/19 06:57:19;;;;;;;13.93;9.60;;;;;;;-155.54;100.00;57697.75;4996294;28;20126;-63
2022/04/19 06:59:45;;;;;;;5.63;4.18;;;;;;;-155.54;100.00;57697.75;4986629;28;20875;-63
2022/04/19 07:02:11;;;;;;;7.03;3.75;;;;;;;-155.54;100.00;57697.75;4998978;28;20465;-63
2022/04/19 07:04:36;;;;;;;6.40;4.30;;;;;;;-155.54;100.00;57697.75;4985330;28;20137;-63
2022/04/19 07:07:03;;;;;;;7.63;3.90;;;;;;;-155.54;100.00;57697.75;4995902;28;20163;-63
2022/04/19 07:09:29;;;;;;;8.05;4.05;;;;;;;-155.54;100.00;57697.75;4997512;28;20553;-63
2022/04/19 07:11:54;;;;;;;7.05;4.50;;;;;;;-155.54;100.00;57697.75;4996917;28;20094;-63
2022/04/19 07:14:20;;;;;;;5.45;4.00;;;;;;;-155.54;100.00;57697.75;4996600;28;20072;-63
2022/04/19 07:16:45;;;;;;;6.22;3.70;;;;;;;-155.54;100.00;57697.75;4982140;28;20092;-63
2022/04/19 07:19:11;;;;;;;7.43;4.15;;;;;;;-155.54;100.00;57697.75;4999926;28;20094;-62
2022/04/19 07:27:04;;;;;;;6.93;4.03;;;;;;;-155.54;100.00;57697.75;4994619;28;20487;-63
2022/04/19 07:29:30;;;;;;;8.63;4.15;;;;;;;-155.54;100.00;57697.75;5037999;28;20073;-63
2022/04/19 07:31:56;;;;;;;7.78;4.38;;;;;;;-155.54;100.00;57697.75;4991303;28;20106;-63
2022/04/19 07:34:22;;;;;;;5.35;4.20;;;;;;;-155.54;100.00;57697.75;4992451;28;20549;-63
2022/04/19 07:36:47;;;;;;;7.93;4.07;;;;;;;-155.54;100.00;57697.75;4992083;28;20151;-63
2022/04/19 07:39:12;;;;;;;6.35;4.20;;;;;;;-155.54;100.00;57697.75;4991426;28;20123;-63
2022/04/19 07:41:38;;;;;;;5.75;4.10;;;;;;;-155.54;100.00;57697.75;4999990;28;20086;-63
2022/04/19 07:44:08;;;;;;;6.28;4.60;;;;;;;-155.54;100.00;57697.75;4996893;28;20075;-64
2022/04/19 07:46:34;;;;;;;5.25;3.75;;;;;;;-155.54;100.00;57697.75;5000066;28;20070;-63
2022/04/19 07:49:00;;;;;;;5.22;4.00;;;;;;;-155.54;100.00;57697.75;5005355;28;20078;-63
2022/04/19 07:51:25;;;;;;;8.10;4.18;;;;;;;-155.54;100.00;57697.75;5021060;28;20103;-64
2022/04/19 07:53:51;;;;;;;7.47;4.60;;;;;;;-155.54;100.00;57697.75;5035137;28;20088;-63
2022/04/19 07:56:16;;;;;;;6.25;4.30;;;;;;;-155.54;100.00;57697.75;5038630;28;20130;-64
2022/04/19 07:58:45;;;;;;;5.38;4.00;;;;;;;-155.54;100.00;57697.75;5053267;28;20177;-63
2022/04/19 08:01:10;;;;;;;5.45;3.88;;;;;;;-155.54;100.00;57697.75;5038060;28;20090;-64
2022/04/19 08:03:36;;;;;;;6.10;4.32;;;;;;;-155.54;100.00;57697.75;5038016;28;20079;-64
2022/04/19 08:06:02;;;;;;;5.82;4.20;;;;;;;-155.54;100.00;57697.75;5035202;28;20056;-64
2022/04/19 08:08:27;;;;;;;5.85;3.97;;;;;;;-155.54;100.00;57697.75;5015717;28;20502;-61
2022/04/19 08:10:53;;;;;;;5.10;3.78;;;;;;;-155.54;100.00;57697.75;5033127;28;22345;-63
2022/04/19 08:13:18;;;;;;;6.88;3.90;;;;;;;-155.54;100.00;57697.75;4988993;28;20070;-61
2022/04/19 08:15:43;;;;;;;6.40;4.55;;;;;;;-155.54;100.00;57697.75;4984296;28;20578;-64
2022/04/19 08:18:14;;;;;;;8.57;4.85;;;;;;;-155.54;100.00;57697.75;4992014;28;20107;-64
2022/04/19 08:20:43;;;;;;;6.65;4.53;;;;;;;-155.54;100.00;57697.75;4989304;28;20091;-64
2022/04/19 08:23:08;;;;;;;9.57;6.00;;;;;;;-155.54;100.00;57697.75;4997088;28;20198;-63
2022/04/19 08:25:37;;;;;;;8.15;5.57;;;;;;;-155.54;100.00;57697.75;4998560;28;20560;-63
2022/04/19 08:28:03;;;;;;;10.05;6.10;;;;;;;-155.54;100.00;57697.75;4998014;28;20537;-63
2022/04/19 08:30:29;;;;;;;7.50;4.78;;;;;;;-155.54;100.00;57697.75;4990786;28;20081;-63
2022/04/19 08:32:54;;;;;;;8.00;5.88;;;;;;;-155.54;100.00;57697.75;4997040;28;20555;-63
2022/04/19 08:35:19;;;;;;;8.48;6.18;;;;;;;-155.54;100.00;57697.75;4992907;28;20091;-63
2022/04/19 08:37:46;;;;;;;8.68;5.75;;;;;;;-155.54;100.00;57697.75;4995751;28;20053;-64
2022/04/19 08:40:12;;;;;;;9.30;6.40;;;;;;;-155.54;100.00;57697.75;4998920;28;20423;-64
2022/04/19 08:42:39;;;;;;;9.43;6.03;;;;;;;-155.54;100.00;57697.75;4992390;28;20062;-63
2022/04/19 08:45:07;;;;;;;9.20;5.53;;;;;;;-155.54;100.00;57697.75;4996323;28;20211;-63
2022/04/19 08:47:37;;;;;;;7.80;5.82;;;;;;;-155.54;100.00;57697.75;4997278;28;20072;-63
2022/04/19 08:50:12;;;;;;;8.00;5.47;;;;;;;-155.54;100.00;57697.75;4997548;28;20879;-63
2022/04/19 08:52:38;;;;;;;7.25;5.32;;;;;;;-155.54;100.00;57697.75;4979492;28;20168;-63
2022/04/19 08:57:50;;;;;;;7.32;5.32;;;;;;;-155.54;100.00;57697.75;4987608;28;20137;-64
2022/04/19 09:00:16;;;;;;;7.43;5.20;;;;;;;-155.54;100.00;57697.75;5004678;28;20086;-64
2022/04/19 09:02:41;;;;;;;6.97;5.43;;;;;;;-155.54;100.00;57697.75;5020724;28;20064;-65
2022/04/19 09:05:21;;;;;;;6.82;4.90;;;;;;;-155.54;100.00;57697.75;4989129;28;20080;-61
2022/04/19 09:07:47;;;;;;;8.27;5.00;;;;;;;-155.54;100.00;57697.75;4989597;28;20072;-61
2022/04/19 09:10:14;;;;;;;7.75;4.65;;;;;;;-155.54;100.00;57697.75;4995188;28;20047;-62
2022/04/19 09:13:21;;;;;;;6.47;4.60;;;;;;;-155.54;100.00;57697.75;4995987;28;20058;-62
2022/04/19 09:15:46;;;;;;;6.32;4.65;;;;;;;-155.54;100.00;57697.75;4958711;28;20073;-61
2022/04/19 09:18:15;;;;;;;7.22;4.88;;;;;;;-155.54;100.00;57697.75;4991233;28;20397;-64
2022/04/19 09:20:41;;;;;;;6.72;4.80;;;;;;;-155.54;100.00;57697.75;5001893;28;20066;-62
2022/04/19 09:23:08;;;;;;;6.63;5.20;;;;;;;-155.54;100.00;57697.75;5000346;28;20545;-62
2022/04/19 09:25:33;;;;;;;;;;;;;;;-155.54;100.00;57697.75;4987569;28;20132;-62
2022/04/19 09:28:00;;;;;;;9.95;6.43;;;;;;;-155.54;100.00;57697.75;5000679;28;20480;-64
2022/04/19 09:30:34;;;;;;;9.35;6.85;;;;;;;-155.54;100.00;57697.75;5016258;28;20057;-64
2022/04/19 09:33:00;;;;;;;10.75;7.65;;;;;;;-155.54;100.00;57697.75;5003879;28;20082;-64
2022/04/19 09:35:33;;;;;;;11.60;7.80;;;;;;;-155.54;100.00;57697.75;5012192;28;20104;-64
2022/04/19 09:37:58;;;;;;;12.35;7.63;;;;;;;-155.54;100.00;57697.75;4985930;28;20513;-65
2022/04/19 09:40:43;;;;;;;11.07;6.97;;;;;;;-155.54;100.00;57697.75;5007804;28;20622;-64
2022/04/19 09:43:16;;;;;;;9.88;6.78;;;;;;;-155.54;100.00;57697.75;5004861;28;20054;-64
2022/04/19 09:46:08;;;;;;;12.25;9.13;;;;;;;-155.54;100.00;57697.75;4978897;28;20418;-64
2022/04/19 09:48:35;;;;;;;13.30;10.32;;;;;;;-155.54;100.00;57697.75;4979468;28;20463;-64
2022/04/19 09:51:03;;;;;;;13.48;7.90;;;;;;;-155.54;100.00;57697.75;4991490;28;20026;-64
2022/04/19 09:53:42;;;;;;;11.98;9.65;;;;;;;-155.54;100.00;57697.75;4998102;28;20511;-64
2022/04/19 09:56:12;;;;;;;15.20;11.02;;;;;;;-155.54;100.00;57697.75;4984667;28;20050;-65
2022/04/19 09:58:38;;;;;;;13.88;11.57;;;;;;;-155.54;100.00;57697.75;5003952;28;20530;-64
2022/04/19 10:01:04;;;;;;;11.82;9.40;;;;;;;-155.54;100.00;57697.75;5001037;28;20056;-64
2022/04/19 10:08:57;;;;;;;17.25;12.60;;;;;;;-155.54;100.00;57697.75;5014604;28;20060;-64
2022/04/19 10:11:25;;;;;;;10.85;6.10;;;;;;;-155.54;100.00;57697.75;5010415;28;20066;-64
2022/04/19 10:13:50;;;;;;;;;;;;;;;-155.54;100.00;57697.75;4985765;28;20508;-65
2022/04/19 10:16:15;;;;;;;12.57;10.70;;;;;;;-155.54;100.00;57697.75;4999533;28;19928;-65
2022/04/19 10:18:42;;;;;;;12.10;8.80;;;;;;;-155.54;100.00;57697.75;5016560;28;20214;-65
2022/04/19 10:21:13;;;;;;;12.90;9.40;;;;;;;-155.54;100.00;57697.75;5009284;28;20623;-64
2022/04/19 10:23:39;;;;;;;9.82;5.07;;;;;;;-155.54;100.00;57697.75;5010732;28;20132;-65
2022/04/19 10:26:21;;;;;;;12.27;8.37;;;;;;;-155.54;100.00;57697.75;5021489;28;20550;-64
2022/04/19 10:28:51;;;;;;;10.98;7.50;;;;;;;-155.54;100.00;57697.75;5014929;28;20790;-65
2022/04/19 10:31:31;;;;;;;13.18;10.80;;;;;;;-155.54;100.00;57697.75;5004331;28;20049;-64
2022/04/19 10:34:01;;;;;;;12.27;9.93;;;;;;;-155.54;100.00;57697.75;4995809;28;20438;-65
2022/04/19 10:36:39;;;;;;;14.90;10.27;;;;;;;-155.54;100.00;57697.75;4988043;28;20095;-65
2022/04/19 10:39:08;;;;;;;11.68;8.15;;;;;;;-155.54;100.00;57697.75;4999175;28;20062;-65
2022/04/19 10:41:47;;;;;;;9.98;7.13;;;;;;;-155.54;100.00;57697.75;5000619;28;20026;-66
2022/04/19 10:44:23;;;;;;;8.73;4.88;;;;;;;-155.54;100.00;57697.75;5023449;28;20128;-65
2022/04/19 10:47:12;;;;;;;13.77;9.67;;;;;;;-155.54;100.00;57697.75;5027075;28;20025;-65
2022/04/19 10:49:48;;;;;;;12.60;10.23;;;;;;;-155.54;100.00;57697.75;5020394;28;20375;-65
2022/04/19 10:52:35;;;;;;;14.40;9.15;;;;;;;-155.54;100.00;57697.75;5016372;28;20045;-61
2022/04/19 10:55:27;;;;;;;8.40;5.32;;;;;;;-155.54;100.00;57697.75;5019849;28;20029;-64
2022/04/19 10:58:23;;;;;;;5.88;4.43;;;;;;;-155.54;100.00;57697.75;5016898;28;20030;-65
2022/04/19 11:00:59;;;;;;;7.47;4.35;;;;;;;-155.54;100.00;57697.75;5011192;28;20482;-64
2022/04/19 11:03:25;;;;;;;12.77;8.05;;;;;;;-155.54;100.00;57697.75;5002603;28;20546;-65
2022/04/19 11:05:57;;;;;;;9.30;7.00;;;;;;;-155.54;100.00;57697.75;5019611;28;20068;-66
2022/04/19 11:08:25;;;;;;;6.50;4.82;;;;;;;-155.54;100.00;57697.75;5032493;28;20060;-65
2022/04/19 11:10:57;;;;;;;6.70;4.43;;;;;;;-155.54;100.00;57697.75;5018609;28;20036;-64
2022/04/19 11:13:23;;;;;;;6.22;4.95;;;;;;;-155.54;100.00;57697.75;5020787;28;20029;-65
2022/04/19 11:15:59;;;;;;;5.68;4.15;;;;;;;-155.54;100.00;57697.75;5011729;28;20037;-65
2022/04/19 11:18:25;;;;;;;8.93;7.53;;;;;;;-155.54;100.00;57697.75;4999528;28;20271;-65
2022/04/19 11:20:52;;;;;;;7.43;5.57;;;;;;;-155.54;100.00;57697.75;4988056;28;20128;-64
2022/04/19 11:23:21;;;;;;;7.82;6.18;;;;;;;-155.54;100.00;57697.75;4995195;28;20124;-65
2022/04/19 11:25:48;;;;;;;8.93;5.95;;;;;;;-155.54;100.00;57697.75;5022185;28;20045;-65
2022/04/19 11:28:17;;;;;;;4.80;3.85;;;;;;;-155.54;100.00;57697.75;4999253;28;20458;-64
2022/04/19 11:31:05;;;;;;;7.82;6.50;;;;;;;-155.54;100.00;57697.75;4997966;28;20058;-65
2022/04/19 11:33:31;;;;;;;4.55;3.75;;;;;;;-155.54;100.00;57697.75;5000564;28;20041;-64
2022/04/19 11:36:00;;;;;;;6.77;4.43;;;;;;;-155.54;100.00;57697.75;5005446;28;20081;-64
2022/04/19 11:38:26;;;;;;;4.50;3.40;;;;;;;-155.54;100.00;57697.75;5014802;28;20642;-64
2022/04/19 11:49:04;;;;;;;4.25;3.10;;;;;;;-155.54;100.00;57697.75;4982564;28;20071;-64